MDT,Max TemperatureF,Mean TemperatureF,Min TemperatureF,Max Dew PointF,MeanDew PointF,Min DewpointF,Max Humidity, Mean Humidity, Min Humidity, Max Sea Level PressureIn, Mean Sea Level PressureIn, Min Sea Level PressureIn, Max VisibilityMiles, Mean VisibilityMiles, Min VisibilityMiles, Max Wind SpeedMPH, Mean Wind SpeedMPH, Max Gust SpeedMPH,PrecipitationIn, CloudCover, Events, WindDirDegrees
2013-5-1,86,69,52,27,11,1,32,11,4,30.23,30.00,29.89,10,10,7,28,11,37,0.00,0,,273
2013-5-2,60,48,36,27,17,6,56,31,12,30.52,30.41,30.24,10,10,10,22,8,28,0.00,0,,215
2013-5-3,68,51,34,14,11,7,42,23,10,30.43,30.24,30.03,10,10,10,20,12,24,0.00,0,,162
2013-5-4,77,58,38,9,6,1,25,13,5,30.05,29.99,29.91,10,10,10,20,10,28,0.00,0,,149
2013-5-5,74,64,54,28,17,4,22,16,10,30.16,30.07,30.00,10,10,10,18,11,26,0.00,4,,134
2013-5-6,73,62,51,46,26,14,79,27,16,30.09,30.02,29.97,10,10,7,30,13,36,0.01,6,Rain,218
2013-5-7,76,60,45,32,25,15,51,27,12,30.08,30.01,29.90,10,10,10,25,6,31,0.00,2,Thunderstorm,193
2013-5-8,74,60,45,30,20,13,47,22,9,30.09,30.02,29.95,10,10,10,22,8,31,0.00,2,,277
2013-5-9,73,62,51,35,22,16,39,21,12,30.14,30.06,30.00,10,10,10,21,7,28,0.00,2,Rain-Thunderstorm,329
2013-5-10,69,58,46,42,36,25,76,44,22,30.33,30.19,30.13,10,10,10,29,9,34,0.00,3,Rain-Thunderstorm,81
2013-5-11,71,56,41,45,36,28,85,52,21,30.37,30.34,30.29,10,10,10,21,5,26,0.00,1,Rain,145
2013-5-12,79,60,41,38,30,21,83,36,11,30.39,30.30,30.18,10,10,10,18,5,23,0.00,0,,134
2013-5-13,83,66,49,31,25,18,40,22,10,30.33,30.25,30.16,10,10,10,14,6,20,0.00,0,,174
2013-5-14,86,69,52,37,21,13,30,17,9,30.19,30.10,29.96,10,10,10,34,8,43,0.00,1,,201
2013-5-15,89,76,63,42,27,16,44,20,7,30.07,30.00,29.89,10,10,10,25,8,32,0.00,3,Rain,287
2013-5-16,89,72,55,21,12,1,24,11,4,30.08,30.00,29.89,10,10,10,23,10,29,0.00,0,,271
2013-5-17,89,72,54,20,14,7,17,10,6,30.08,30.00,29.89,10,10,10,26,6,41,0.00,0,,236
2013-5-18,81,68,55,21,15,7,23,12,7,30.07,29.98,29.86,10,10,10,23,9,34,0.00,0,,282
2013-5-19,78,67,56,34,27,18,41,25,11,30.02,29.96,29.88,10,10,10,28,14,36,0.00,3,,311
2013-5-20,79,64,49,33,21,-1,51,25,4,30.04,29.98,29.86,10,10,7,31,13,41,0.00,1,,294
2013-5-21,82,64,46,31,23,7,46,23,6,30.11,30.01,29.89,10,10,10,15,7,24,0.00,0,Thunderstorm,322
2013-5-22,88,71,54,17,11,6,20,10,5,30.01,29.93,29.84,10,10,10,16,7,26,0.00,0,,223
2013-5-23,92,72,52,16,8,-3,15,8,4,30.05,29.97,29.88,10,10,10,30,7,34,0.00,0,,192
2013-5-24,91,73,55,38,21,0,44,17,6,30.16,30.06,29.96,10,9,4,22,8,29,0.00,1,,174
2013-5-25,95,74,54,36,13,4,22,10,4,30.15,30.05,29.93,10,10,10,18,8,30,0.00,0,,219
2013-5-26,90,74,57,14,7,-6,14,8,4,30.14,30.05,29.94,10,10,10,20,7,29,0.00,0,,234
2013-5-27,88,72,57,16,7,-4,13,8,4,30.08,29.99,29.88,10,10,10,20,7,28,0.00,0,,263
2013-5-28,87,69,51,14,7,-7,18,9,4,29.93,29.83,29.67,10,10,10,24,8,30,0.00,0,,231
2013-5-29,84,72,59,30,19,11,25,14,6,29.83,29.78,29.72,10,10,5,29,12,44,0.00,1,,271
2013-5-30,89,74,59,33,24,12,34,17,6,29.97,29.90,29.84,10,10,10,25,14,36,0.00,0,,273
2013-5-31,92,78,63,34,24,3,31,15,7,30.05,29.97,29.90,10,10,10,23,14,31,0.00,0,,295